sensor_id;sensor_type;location;lat;lon;timestamp;P1;durP1;ratioP1;P2;durP2;ratioP2
22250;SDS011;59348;52.158;5.588;2023-01-24T00:01:58;17.23;;;13.63;;
22250;SDS011;59348;52.158;5.588;2023-01-24T00:04:27;18.65;;;13.65;;
22250;SDS011;59348;52.158;5.588;2023-01-24T00:06:54;17.75;;;13.90;;
22250;SDS011;59348;52.158;5.588;2023-01-24T00:09:22;19.58;;;13.82;;
22250;SDS011;59348;52.158;5.588;2023-01-24T00:11:49;19.17;;;14.32;;
22250;SDS011;59348;52.158;5.588;2023-01-24T00:14:17;19.10;;;14.07;;
22250;SDS011;59348;52.158;5.588;2023-01-24T00:16:45;18.30;;;13.07;;
22250;SDS011;59348;52.158;5.588;2023-01-24T00:19:12;18.40;;;14.10;;
22250;SDS011;59348;52.158;5.588;2023-01-24T00:21:41;17.23;;;13.40;;
22250;SDS011;59348;52.158;5.588;2023-01-24T00:24:09;20.77;;;14.70;;
22250;SDS011;59348;52.158;5.588;2023-01-24T00:26:36;18.45;;;13.85;;
22250;SDS011;59348;52.158;5.588;2023-01-24T00:29:04;21.17;;;14.25;;
22250;SDS011;59348;52.158;5.588;2023-01-24T00:31:32;17.35;;;13.23;;
22250;SDS011;59348;52.158;5.588;2023-01-24T00:34:00;18.75;;;14.02;;
22250;SDS011;59348;52.158;5.588;2023-01-24T00:36:28;21.38;;;14.55;;
22250;SDS011;59348;52.158;5.588;2023-01-24T00:38:57;20.73;;;14.35;;
22250;SDS011;59348;52.158;5.588;2023-01-24T00:41:24;18.10;;;14.15;;
22250;SDS011;59348;52.158;5.588;2023-01-24T00:43:52;22.67;;;14.32;;
22250;SDS011;59348;52.158;5.588;2023-01-24T00:46:19;20.85;;;15.05;;
22250;SDS011;59348;52.158;5.588;2023-01-24T00:48:47;20.10;;;14.23;;
22250;SDS011;59348;52.158;5.588;2023-01-24T00:51:15;18.50;;;13.77;;
22250;SDS011;59348;52.158;5.588;2023-01-24T00:53:43;18.95;;;14.63;;
22250;SDS011;59348;52.158;5.588;2023-01-24T00:56:11;19.42;;;14.25;;
22250;SDS011;59348;52.158;5.588;2023-01-24T00:58:41;19.15;;;13.77;;
22250;SDS011;59348;52.158;5.588;2023-01-24T01:01:09;20.85;;;14.30;;
22250;SDS011;59348;52.158;5.588;2023-01-24T01:03:36;19.98;;;14.55;;
22250;SDS011;59348;52.158;5.588;2023-01-24T01:06:04;17.88;;;13.48;;
22250;SDS011;59348;52.158;5.588;2023-01-24T01:08:32;19.70;;;14.30;;
22250;SDS011;59348;52.158;5.588;2023-01-24T01:11:00;19.88;;;14.38;;
22250;SDS011;59348;52.158;5.588;2023-01-24T01:13:29;19.27;;;13.75;;
22250;SDS011;59348;52.158;5.588;2023-01-24T01:16:00;18.95;;;13.98;;
22250;SDS011;59348;52.158;5.588;2023-01-24T01:18:28;21.48;;;14.48;;
22250;SDS011;59348;52.158;5.588;2023-01-24T01:20:55;20.08;;;14.52;;
22250;SDS011;59348;52.158;5.588;2023-01-24T01:23:23;20.73;;;13.95;;
22250;SDS011;59348;52.158;5.588;2023-01-24T01:25:50;19.42;;;13.55;;
22250;SDS011;59348;52.158;5.588;2023-01-24T01:28:17;18.25;;;13.23;;
22250;SDS011;59348;52.158;5.588;2023-01-24T01:30:51;17.58;;;13.02;;
22250;SDS011;59348;52.158;5.588;2023-01-24T01:33:19;18.65;;;12.32;;
22250;SDS011;59348;52.158;5.588;2023-01-24T01:35:47;17.23;;;12.50;;
22250;SDS011;59348;52.158;5.588;2023-01-24T01:38:14;18.33;;;12.32;;
22250;SDS011;59348;52.158;5.588;2023-01-24T01:40:42;16.90;;;12.02;;
22250;SDS011;59348;52.158;5.588;2023-01-24T01:43:10;19.20;;;13.25;;
22250;SDS011;59348;52.158;5.588;2023-01-24T01:45:40;21.15;;;13.50;;
22250;SDS011;59348;52.158;5.588;2023-01-24T01:48:15;17.88;;;12.98;;
22250;SDS011;59348;52.158;5.588;2023-01-24T01:50:45;18.27;;;12.82;;
22250;SDS011;59348;52.158;5.588;2023-01-24T01:53:14;16.98;;;12.15;;
22250;SDS011;59348;52.158;5.588;2023-01-24T01:55:43;16.98;;;12.18;;
22250;SDS011;59348;52.158;5.588;2023-01-24T01:58:12;17.38;;;11.93;;
22250;SDS011;59348;52.158;5.588;2023-01-24T02:00:42;17.73;;;12.27;;
22250;SDS011;59348;52.158;5.588;2023-01-24T02:03:18;17.27;;;13.02;;
22250;SDS011;59348;52.158;5.588;2023-01-24T02:05:59;19.45;;;13.05;;
22250;SDS011;59348;52.158;5.588;2023-01-24T02:08:27;18.90;;;13.15;;
22250;SDS011;59348;52.158;5.588;2023-01-24T02:10:54;18.67;;;12.80;;
22250;SDS011;59348;52.158;5.588;2023-01-24T02:13:37;19.67;;;13.10;;
22250;SDS011;59348;52.158;5.588;2023-01-24T02:16:08;18.00;;;12.60;;
22250;SDS011;59348;52.158;5.588;2023-01-24T02:18:37;17.08;;;12.35;;
22250;SDS011;59348;52.158;5.588;2023-01-24T02:21:06;17.67;;;13.32;;
22250;SDS011;59348;52.158;5.588;2023-01-24T02:23:35;18.38;;;12.85;;
22250;SDS011;59348;52.158;5.588;2023-01-24T02:26:10;19.60;;;13.75;;
22250;SDS011;59348;52.158;5.588;2023-01-24T02:28:38;19.52;;;12.68;;
22250;SDS011;59348;52.158;5.588;2023-01-24T02:31:06;24.85;;;15.10;;
22250;SDS011;59348;52.158;5.588;2023-01-24T02:33:33;20.38;;;14.23;;
22250;SDS011;59348;52.158;5.588;2023-01-24T02:38:46;20.63;;;14.00;;
22250;SDS011;59348;52.158;5.588;2023-01-24T02:41:15;19.27;;;13.57;;
22250;SDS011;59348;52.158;5.588;2023-01-24T02:43:45;21.45;;;15.13;;
22250;SDS011;59348;52.158;5.588;2023-01-24T02:46:14;21.40;;;14.25;;
22250;SDS011;59348;52.158;5.588;2023-01-24T02:48:42;20.58;;;13.75;;
22250;SDS011;59348;52.158;5.588;2023-01-24T02:51:09;19.67;;;13.55;;
22250;SDS011;59348;52.158;5.588;2023-01-24T02:53:51;20.13;;;13.73;;
22250;SDS011;59348;52.158;5.588;2023-01-24T02:56:19;19.02;;;13.57;;
22250;SDS011;59348;52.158;5.588;2023-01-24T02:59:00;19.23;;;13.57;;
22250;SDS011;59348;52.158;5.588;2023-01-24T03:01:29;19.83;;;13.82;;
22250;SDS011;59348;52.158;5.588;2023-01-24T03:03:57;20.55;;;13.80;;
22250;SDS011;59348;52.158;5.588;2023-01-24T03:06:25;18.30;;;13.38;;
22250;SDS011;59348;52.158;5.588;2023-01-24T03:08:53;18.05;;;12.73;;
22250;SDS011;59348;52.158;5.588;2023-01-24T03:11:23;19.15;;;12.93;;
22250;SDS011;59348;52.158;5.588;2023-01-24T03:13:51;18.90;;;13.15;;
22250;SDS011;59348;52.158;5.588;2023-01-24T03:16:32;19.17;;;13.15;;
22250;SDS011;59348;52.158;5.588;2023-01-24T03:19:14;17.73;;;13.23;;
22250;SDS011;59348;52.158;5.588;2023-01-24T03:21:56;18.77;;;13.40;;
22250;SDS011;59348;52.158;5.588;2023-01-24T03:24:38;19.90;;;13.40;;
22250;SDS011;59348;52.158;5.588;2023-01-24T03:27:20;19.45;;;13.43;;
22250;SDS011;59348;52.158;5.588;2023-01-24T03:30:02;19.92;;;13.93;;
22250;SDS011;59348;52.158;5.588;2023-01-24T03:32:44;20.67;;;14.10;;
22250;SDS011;59348;52.158;5.588;2023-01-24T03:35:25;18.33;;;12.95;;
22250;SDS011;59348;52.158;5.588;2023-01-24T03:37:52;20.38;;;13.77;;
22250;SDS011;59348;52.158;5.588;2023-01-24T03:40:34;20.40;;;14.45;;
22250;SDS011;59348;52.158;5.588;2023-01-24T03:43:02;22.02;;;15.27;;
22250;SDS011;59348;52.158;5.588;2023-01-24T03:45:30;19.73;;;14.35;;
22250;SDS011;59348;52.158;5.588;2023-01-24T03:47:59;23.95;;;15.40;;
22250;SDS011;59348;52.158;5.588;2023-01-24T03:50:28;19.88;;;14.48;;
22250;SDS011;59348;52.158;5.588;2023-01-24T03:53:10;18.85;;;13.98;;
22250;SDS011;59348;52.158;5.588;2023-01-24T03:55:38;20.23;;;14.63;;
22250;SDS011;59348;52.158;5.588;2023-01-24T03:58:08;22.52;;;15.70;;
22250;SDS011;59348;52.158;5.588;2023-01-24T04:00:35;20.58;;;14.82;;
22250;SDS011;59348;52.158;5.588;2023-01-24T04:03:04;21.23;;;15.77;;
22250;SDS011;59348;52.158;5.588;2023-01-24T04:05:32;23.52;;;15.10;;
22250;SDS011;59348;52.158;5.588;2023-01-24T04:08:00;21.55;;;15.13;;
22250;SDS011;59348;52.158;5.588;2023-01-24T04:10:27;22.13;;;15.52;;
22250;SDS011;59348;52.158;5.588;2023-01-24T04:12:55;22.85;;;15.23;;
22250;SDS011;59348;52.158;5.588;2023-01-24T04:15:25;22.92;;;16.13;;
22250;SDS011;59348;52.158;5.588;2023-01-24T04:17:54;23.42;;;15.88;;
22250;SDS011;59348;52.158;5.588;2023-01-24T04:20:22;22.90;;;15.38;;
22250;SDS011;59348;52.158;5.588;2023-01-24T04:22:49;22.27;;;15.55;;
22250;SDS011;59348;52.158;5.588;2023-01-24T04:25:17;21.70;;;15.52;;
22250;SDS011;59348;52.158;5.588;2023-01-24T04:27:44;21.67;;;15.93;;
22250;SDS011;59348;52.158;5.588;2023-01-24T04:30:13;23.25;;;16.20;;
22250;SDS011;59348;52.158;5.588;2023-01-24T04:32:42;24.20;;;16.63;;
22250;SDS011;59348;52.158;5.588;2023-01-24T04:35:10;23.73;;;16.58;;
22250;SDS011;59348;52.158;5.588;2023-01-24T04:37:42;24.10;;;17.05;;
22250;SDS011;59348;52.158;5.588;2023-01-24T04:40:10;23.83;;;16.38;;
22250;SDS011;59348;52.158;5.588;2023-01-24T04:42:38;23.05;;;15.63;;
22250;SDS011;59348;52.158;5.588;2023-01-24T04:45:06;21.20;;;16.00;;
22250;SDS011;59348;52.158;5.588;2023-01-24T04:47:33;26.45;;;16.98;;
22250;SDS011;59348;52.158;5.588;2023-01-24T04:50:02;24.02;;;16.92;;
22250;SDS011;59348;52.158;5.588;2023-01-24T04:52:30;25.52;;;17.88;;
22250;SDS011;59348;52.158;5.588;2023-01-24T04:54:58;27.45;;;18.73;;
22250;SDS011;59348;52.158;5.588;2023-01-24T04:57:25;26.75;;;18.95;;
22250;SDS011;59348;52.158;5.588;2023-01-24T04:59:53;26.35;;;19.08;;
22250;SDS011;59348;52.158;5.588;2023-01-24T05:02:21;27.33;;;18.65;;
22250;SDS011;59348;52.158;5.588;2023-01-24T05:04:49;25.60;;;18.00;;
22250;SDS011;59348;52.158;5.588;2023-01-24T05:07:17;29.05;;;18.85;;
22250;SDS011;59348;52.158;5.588;2023-01-24T05:09:45;27.08;;;18.60;;
22250;SDS011;59348;52.158;5.588;2023-01-24T05:12:13;28.52;;;18.48;;
22250;SDS011;59348;52.158;5.588;2023-01-24T05:14:40;26.33;;;18.10;;
22250;SDS011;59348;52.158;5.588;2023-01-24T05:17:09;27.38;;;18.63;;
22250;SDS011;59348;52.158;5.588;2023-01-24T05:19:36;24.75;;;17.17;;
22250;SDS011;59348;52.158;5.588;2023-01-24T05:22:04;27.13;;;17.65;;
22250;SDS011;59348;52.158;5.588;2023-01-24T05:24:32;24.55;;;17.75;;
22250;SDS011;59348;52.158;5.588;2023-01-24T05:27:01;24.70;;;17.70;;
22250;SDS011;59348;52.158;5.588;2023-01-24T05:29:30;24.98;;;17.02;;
22250;SDS011;59348;52.158;5.588;2023-01-24T05:31:58;27.83;;;18.20;;
22250;SDS011;59348;52.158;5.588;2023-01-24T05:34:25;26.08;;;18.02;;
22250;SDS011;59348;52.158;5.588;2023-01-24T05:36:52;26.17;;;17.85;;
22250;SDS011;59348;52.158;5.588;2023-01-24T05:39:21;29.10;;;18.45;;
22250;SDS011;59348;52.158;5.588;2023-01-24T05:41:49;25.55;;;18.17;;
22250;SDS011;59348;52.158;5.588;2023-01-24T05:44:16;25.85;;;18.00;;
22250;SDS011;59348;52.158;5.588;2023-01-24T05:46:45;26.02;;;18.00;;
22250;SDS011;59348;52.158;5.588;2023-01-24T05:49:13;27.48;;;17.65;;
22250;SDS011;59348;52.158;5.588;2023-01-24T05:51:40;25.75;;;18.13;;
22250;SDS011;59348;52.158;5.588;2023-01-24T05:54:08;25.90;;;18.65;;
22250;SDS011;59348;52.158;5.588;2023-01-24T05:56:36;26.25;;;17.65;;
22250;SDS011;59348;52.158;5.588;2023-01-24T05:59:05;28.02;;;18.92;;
22250;SDS011;59348;52.158;5.588;2023-01-24T06:01:33;26.58;;;18.17;;
22250;SDS011;59348;52.158;5.588;2023-01-24T06:04:00;28.58;;;18.48;;
22250;SDS011;59348;52.158;5.588;2023-01-24T06:06:27;29.25;;;18.63;;
22250;SDS011;59348;52.158;5.588;2023-01-24T06:08:56;29.75;;;19.05;;
22250;SDS011;59348;52.158;5.588;2023-01-24T06:11:25;28.55;;;18.67;;
22250;SDS011;59348;52.158;5.588;2023-01-24T06:13:53;27.17;;;18.52;;
22250;SDS011;59348;52.158;5.588;2023-01-24T06:16:23;26.63;;;17.75;;
22250;SDS011;59348;52.158;5.588;2023-01-24T06:18:52;26.20;;;18.08;;
22250;SDS011;59348;52.158;5.588;2023-01-24T06:21:23;27.02;;;19.17;;
22250;SDS011;59348;52.158;5.588;2023-01-24T06:23:53;26.10;;;18.13;;
22250;SDS011;59348;52.158;5.588;2023-01-24T06:26:21;25.13;;;17.77;;
22250;SDS011;59348;52.158;5.588;2023-01-24T06:28:49;27.40;;;18.80;;
22250;SDS011;59348;52.158;5.588;2023-01-24T06:31:24;27.42;;;18.23;;
22250;SDS011;59348;52.158;5.588;2023-01-24T06:34:00;28.10;;;18.77;;
22250;SDS011;59348;52.158;5.588;2023-01-24T06:36:32;27.58;;;19.33;;
22250;SDS011;59348;52.158;5.588;2023-01-24T06:39:01;28.05;;;18.98;;
22250;SDS011;59348;52.158;5.588;2023-01-24T06:41:29;27.23;;;19.05;;
22250;SDS011;59348;52.158;5.588;2023-01-24T06:43:56;28.75;;;19.60;;
22250;SDS011;59348;52.158;5.588;2023-01-24T06:46:26;28.48;;;18.40;;
22250;SDS011;59348;52.158;5.588;2023-01-24T06:48:55;28.30;;;19.20;;
22250;SDS011;59348;52.158;5.588;2023-01-24T06:51:23;28.05;;;18.88;;
22250;SDS011;59348;52.158;5.588;2023-01-24T06:53:53;31.63;;;19.35;;
22250;SDS011;59348;52.158;5.588;2023-01-24T06:56:22;27.85;;;18.80;;
22250;SDS011;59348;52.158;5.588;2023-01-24T06:58:49;29.35;;;19.55;;
22250;SDS011;59348;52.158;5.588;2023-01-24T07:01:17;26.75;;;18.83;;
22250;SDS011;59348;52.158;5.588;2023-01-24T07:03:46;30.95;;;19.40;;
22250;SDS011;59348;52.158;5.588;2023-01-24T07:06:14;29.02;;;20.23;;
22250;SDS011;59348;52.158;5.588;2023-01-24T07:08:43;29.80;;;19.75;;
22250;SDS011;59348;52.158;5.588;2023-01-24T07:11:11;29.67;;;19.55;;
22250;SDS011;59348;52.158;5.588;2023-01-24T07:13:40;31.05;;;20.25;;
22250;SDS011;59348;52.158;5.588;2023-01-24T07:16:08;28.55;;;19.17;;
22250;SDS011;59348;52.158;5.588;2023-01-24T07:18:36;26.98;;;18.92;;
22250;SDS011;59348;52.158;5.588;2023-01-24T07:21:06;28.02;;;19.02;;
22250;SDS011;59348;52.158;5.588;2023-01-24T07:23:34;30.02;;;19.38;;
22250;SDS011;59348;52.158;5.588;2023-01-24T07:26:02;27.13;;;18.88;;
22250;SDS011;59348;52.158;5.588;2023-01-24T07:28:34;29.85;;;19.42;;
22250;SDS011;59348;52.158;5.588;2023-01-24T07:31:03;28.17;;;19.33;;
22250;SDS011;59348;52.158;5.588;2023-01-24T07:33:32;27.30;;;18.95;;
22250;SDS011;59348;52.158;5.588;2023-01-24T07:36:01;29.30;;;19.10;;
22250;SDS011;59348;52.158;5.588;2023-01-24T07:38:38;30.13;;;19.42;;
22250;SDS011;59348;52.158;5.588;2023-01-24T07:41:06;27.90;;;18.23;;
22250;SDS011;59348;52.158;5.588;2023-01-24T07:43:34;27.45;;;19.15;;
22250;SDS011;59348;52.158;5.588;2023-01-24T07:46:02;26.77;;;18.50;;
22250;SDS011;59348;52.158;5.588;2023-01-24T07:48:30;28.27;;;18.40;;
22250;SDS011;59348;52.158;5.588;2023-01-24T07:50:58;28.65;;;17.77;;
22250;SDS011;59348;52.158;5.588;2023-01-24T07:53:26;27.10;;;18.27;;
22250;SDS011;59348;52.158;5.588;2023-01-24T07:55:58;28.77;;;18.20;;
22250;SDS011;59348;52.158;5.588;2023-01-24T07:58:26;27.38;;;17.80;;
22250;SDS011;59348;52.158;5.588;2023-01-24T08:00:54;25.50;;;17.27;;
22250;SDS011;59348;52.158;5.588;2023-01-24T08:03:22;26.80;;;18.27;;
22250;SDS011;59348;52.158;5.588;2023-01-24T08:05:59;25.70;;;18.20;;
22250;SDS011;59348;52.158;5.588;2023-01-24T08:08:27;25.60;;;17.63;;
22250;SDS011;59348;52.158;5.588;2023-01-24T08:10:56;26.67;;;17.13;;
22250;SDS011;59348;52.158;5.588;2023-01-24T08:13:24;25.35;;;17.75;;
22250;SDS011;59348;52.158;5.588;2023-01-24T08:15:51;25.35;;;16.63;;
22250;SDS011;59348;52.158;5.588;2023-01-24T08:18:22;25.05;;;17.13;;
22250;SDS011;59348;52.158;5.588;2023-01-24T08:20:53;24.58;;;17.05;;
22250;SDS011;59348;52.158;5.588;2023-01-24T08:23:20;25.85;;;16.02;;
22250;SDS011;59348;52.158;5.588;2023-01-24T08:25:47;22.75;;;15.88;;
22250;SDS011;59348;52.158;5.588;2023-01-24T08:28:17;26.27;;;17.23;;
22250;SDS011;59348;52.158;5.588;2023-01-24T08:30:45;26.30;;;16.95;;
22250;SDS011;59348;52.158;5.588;2023-01-24T08:33:13;27.92;;;17.13;;
22250;SDS011;59348;52.158;5.588;2023-01-24T08:35:44;22.77;;;16.10;;
22250;SDS011;59348;52.158;5.588;2023-01-24T08:38:12;26.60;;;17.55;;
22250;SDS011;59348;52.158;5.588;2023-01-24T08:40:42;27.13;;;18.02;;
22250;SDS011;59348;52.158;5.588;2023-01-24T08:43:10;24.95;;;16.58;;
22250;SDS011;59348;52.158;5.588;2023-01-24T08:45:41;27.65;;;17.35;;
22250;SDS011;59348;52.158;5.588;2023-01-24T08:48:09;23.80;;;17.08;;
22250;SDS011;59348;52.158;5.588;2023-01-24T08:50:37;25.13;;;17.48;;
22250;SDS011;59348;52.158;5.588;2023-01-24T08:53:05;26.90;;;16.45;;
22250;SDS011;59348;52.158;5.588;2023-01-24T08:55:32;26.88;;;17.23;;
22250;SDS011;59348;52.158;5.588;2023-01-24T08:58:00;26.67;;;17.13;;
22250;SDS011;59348;52.158;5.588;2023-01-24T09:00:28;25.30;;;16.73;;
22250;SDS011;59348;52.158;5.588;2023-01-24T09:02:58;27.20;;;17.50;;
22250;SDS011;59348;52.158;5.588;2023-01-24T09:05:27;23.52;;;16.40;;
22250;SDS011;59348;52.158;5.588;2023-01-24T09:07:56;26.27;;;17.45;;
22250;SDS011;59348;52.158;5.588;2023-01-24T09:10:25;24.35;;;16.77;;
22250;SDS011;59348;52.158;5.588;2023-01-24T09:12:53;26.35;;;17.10;;
22250;SDS011;59348;52.158;5.588;2023-01-24T09:15:21;25.38;;;17.38;;
22250;SDS011;59348;52.158;5.588;2023-01-24T09:17:48;25.20;;;17.38;;
22250;SDS011;59348;52.158;5.588;2023-01-24T09:20:17;27.98;;;18.05;;
22250;SDS011;59348;52.158;5.588;2023-01-24T09:22:45;25.08;;;17.05;;
22250;SDS011;59348;52.158;5.588;2023-01-24T09:25:13;27.60;;;17.55;;
22250;SDS011;59348;52.158;5.588;2023-01-24T09:27:41;29.52;;;18.35;;
22250;SDS011;59348;52.158;5.588;2023-01-24T09:30:09;27.45;;;17.38;;
22250;SDS011;59348;52.158;5.588;2023-01-24T09:32:37;28.10;;;17.73;;
22250;SDS011;59348;52.158;5.588;2023-01-24T09:35:05;27.58;;;17.77;;
22250;SDS011;59348;52.158;5.588;2023-01-24T09:37:35;25.42;;;17.10;;
22250;SDS011;59348;52.158;5.588;2023-01-24T09:40:02;26.63;;;17.65;;
22250;SDS011;59348;52.158;5.588;2023-01-24T09:42:31;28.17;;;18.08;;
22250;SDS011;59348;52.158;5.588;2023-01-24T09:45:04;25.83;;;17.08;;
22250;SDS011;59348;52.158;5.588;2023-01-24T09:47:39;30.58;;;18.92;;
22250;SDS011;59348;52.158;5.588;2023-01-24T09:50:09;25.83;;;17.48;;
22250;SDS011;59348;52.158;5.588;2023-01-24T09:52:43;24.33;;;15.85;;
22250;SDS011;59348;52.158;5.588;2023-01-24T09:55:12;23.42;;;15.10;;
22250;SDS011;59348;52.158;5.588;2023-01-24T09:57:47;21.10;;;15.07;;
22250;SDS011;59348;52.158;5.588;2023-01-24T10:00:16;22.48;;;14.68;;
22250;SDS011;59348;52.158;5.588;2023-01-24T10:02:45;20.40;;;14.10;;
22250;SDS011;59348;52.158;5.588;2023-01-24T10:05:14;22.25;;;14.80;;
22250;SDS011;59348;52.158;5.588;2023-01-24T10:07:49;22.35;;;15.10;;
22250;SDS011;59348;52.158;5.588;2023-01-24T10:10:26;23.77;;;15.57;;
22250;SDS011;59348;52.158;5.588;2023-01-24T10:13:00;23.92;;;14.63;;
22250;SDS011;59348;52.158;5.588;2023-01-24T10:15:31;22.60;;;14.20;;
22250;SDS011;59348;52.158;5.588;2023-01-24T10:18:05;26.02;;;14.60;;
22250;SDS011;59348;52.158;5.588;2023-01-24T10:20:41;22.75;;;14.15;;
22250;SDS011;59348;52.158;5.588;2023-01-24T10:23:14;19.52;;;13.90;;
22250;SDS011;59348;52.158;5.588;2023-01-24T10:25:45;19.73;;;13.00;;
22250;SDS011;59348;52.158;5.588;2023-01-24T10:28:17;20.70;;;13.05;;
22250;SDS011;59348;52.158;5.588;2023-01-24T10:30:47;18.77;;;13.48;;
22250;SDS011;59348;52.158;5.588;2023-01-24T10:33:18;21.42;;;13.63;;
22250;SDS011;59348;52.158;5.588;2023-01-24T10:35:50;22.05;;;13.73;;
22250;SDS011;59348;52.158;5.588;2023-01-24T10:38:25;22.80;;;14.40;;
22250;SDS011;59348;52.158;5.588;2023-01-24T10:40:54;23.05;;;13.50;;
22250;SDS011;59348;52.158;5.588;2023-01-24T10:43:23;20.08;;;13.80;;
22250;SDS011;59348;52.158;5.588;2023-01-24T10:45:59;16.30;;;12.63;;
22250;SDS011;59348;52.158;5.588;2023-01-24T10:48:32;21.33;;;14.07;;
22250;SDS011;59348;52.158;5.588;2023-01-24T10:51:10;19.48;;;13.98;;
22250;SDS011;59348;52.158;5.588;2023-01-24T10:53:40;22.10;;;14.20;;
22250;SDS011;59348;52.158;5.588;2023-01-24T10:56:08;19.85;;;13.82;;
22250;SDS011;59348;52.158;5.588;2023-01-24T10:58:36;20.08;;;14.10;;
22250;SDS011;59348;52.158;5.588;2023-01-24T11:01:05;20.25;;;13.98;;
22250;SDS011;59348;52.158;5.588;2023-01-24T11:03:33;21.77;;;14.98;;
22250;SDS011;59348;52.158;5.588;2023-01-24T11:06:09;24.90;;;15.85;;
22250;SDS011;59348;52.158;5.588;2023-01-24T11:08:47;19.25;;;13.95;;
22250;SDS011;59348;52.158;5.588;2023-01-24T11:11:20;20.20;;;14.38;;
22250;SDS011;59348;52.158;5.588;2023-01-24T11:13:49;21.40;;;13.93;;
22250;SDS011;59348;52.158;5.588;2023-01-24T11:16:21;20.85;;;13.65;;
22250;SDS011;59348;52.158;5.588;2023-01-24T11:27:29;20.58;;;14.10;;
22250;SDS011;59348;52.158;5.588;2023-01-24T11:30:18;20.52;;;14.13;;
22250;SDS011;59348;52.158;5.588;2023-01-24T11:33:10;22.85;;;14.48;;
22250;SDS011;59348;52.158;5.588;2023-01-24T11:35:50;20.70;;;14.43;;
22250;SDS011;59348;52.158;5.588;2023-01-24T11:38:25;22.50;;;15.00;;
22250;SDS011;59348;52.158;5.588;2023-01-24T11:40:58;20.40;;;14.07;;
22250;SDS011;59348;52.158;5.588;2023-01-24T11:43:37;20.17;;;14.95;;
22250;SDS011;59348;52.158;5.588;2023-01-24T11:46:28;20.17;;;14.40;;
22250;SDS011;59348;52.158;5.588;2023-01-24T11:49:17;22.17;;;15.02;;
22250;SDS011;59348;52.158;5.588;2023-01-24T11:52:00;19.92;;;14.07;;
22250;SDS011;59348;52.158;5.588;2023-01-24T11:54:49;21.63;;;14.60;;
22250;SDS011;59348;52.158;5.588;2023-01-24T11:57:26;23.17;;;15.15;;
22250;SDS011;59348;52.158;5.588;2023-01-24T12:03:09;19.77;;;14.63;;
22250;SDS011;59348;52.158;5.588;2023-01-24T12:12:09;21.15;;;14.20;;
22250;SDS011;59348;52.158;5.588;2023-01-24T12:14:50;21.90;;;13.65;;
22250;SDS011;59348;52.158;5.588;2023-01-24T12:18:11;19.63;;;13.65;;
22250;SDS011;59348;52.158;5.588;2023-01-24T12:23:32;18.52;;;13.73;;
22250;SDS011;59348;52.158;5.588;2023-01-24T12:26:20;21.77;;;14.45;;
22250;SDS011;59348;52.158;5.588;2023-01-24T12:29:20;20.33;;;13.55;;
22250;SDS011;59348;52.158;5.588;2023-01-24T12:31:58;18.98;;;13.75;;
22250;SDS011;59348;52.158;5.588;2023-01-24T12:34:41;19.58;;;13.93;;
22250;SDS011;59348;52.158;5.588;2023-01-24T12:37:20;19.98;;;14.15;;
22250;SDS011;59348;52.158;5.588;2023-01-24T12:40:00;20.33;;;14.40;;
22250;SDS011;59348;52.158;5.588;2023-01-24T12:42:39;21.05;;;14.60;;
22250;SDS011;59348;52.158;5.588;2023-01-24T12:45:18;18.90;;;14.35;;
22250;SDS011;59348;52.158;5.588;2023-01-24T12:47:58;22.08;;;14.75;;
22250;SDS011;59348;52.158;5.588;2023-01-24T12:50:39;23.02;;;15.70;;
22250;SDS011;59348;52.158;5.588;2023-01-24T12:53:27;21.30;;;15.50;;
22250;SDS011;59348;52.158;5.588;2023-01-24T12:56:11;22.65;;;15.65;;
22250;SDS011;59348;52.158;5.588;2023-01-24T12:59:00;21.40;;;15.32;;
22250;SDS011;59348;52.158;5.588;2023-01-24T13:04:32;22.55;;;16.58;;
22250;SDS011;59348;52.158;5.588;2023-01-24T13:07:09;23.83;;;15.82;;
22250;SDS011;59348;52.158;5.588;2023-01-24T13:09:48;23.00;;;15.32;;
22250;SDS011;59348;52.158;5.588;2023-01-24T13:12:29;22.88;;;16.25;;
22250;SDS011;59348;52.158;5.588;2023-01-24T13:15:10;23.48;;;16.00;;
22250;SDS011;59348;52.158;5.588;2023-01-24T13:23:49;22.92;;;16.27;;
22250;SDS011;59348;52.158;5.588;2023-01-24T13:27:10;19.92;;;15.05;;
22250;SDS011;59348;52.158;5.588;2023-01-24T13:32:19;21.77;;;15.90;;
22250;SDS011;59348;52.158;5.588;2023-01-24T13:35:20;22.80;;;16.80;;
22250;SDS011;59348;52.158;5.588;2023-01-24T13:38:14;21.13;;;15.52;;
22250;SDS011;59348;52.158;5.588;2023-01-24T13:40:57;22.80;;;15.52;;
22250;SDS011;59348;52.158;5.588;2023-01-24T13:49:18;23.88;;;16.00;;
22250;SDS011;59348;52.158;5.588;2023-01-24T13:51:57;22.10;;;15.60;;
22250;SDS011;59348;52.158;5.588;2023-01-24T13:54:38;22.40;;;15.95;;
22250;SDS011;59348;52.158;5.588;2023-01-24T13:57:21;22.23;;;15.95;;
22250;SDS011;59348;52.158;5.588;2023-01-24T14:00:27;22.27;;;16.23;;
22250;SDS011;59348;52.158;5.588;2023-01-24T14:03:00;23.50;;;15.85;;
22250;SDS011;59348;52.158;5.588;2023-01-24T14:05:48;20.35;;;15.52;;
22250;SDS011;59348;52.158;5.588;2023-01-24T14:08:31;21.92;;;15.48;;
22250;SDS011;59348;52.158;5.588;2023-01-24T14:11:17;20.95;;;15.52;;
22250;SDS011;59348;52.158;5.588;2023-01-24T14:13:56;20.88;;;15.55;;
22250;SDS011;59348;52.158;5.588;2023-01-24T14:28:11;22.48;;;15.88;;
22250;SDS011;59348;52.158;5.588;2023-01-24T14:30:46;21.02;;;15.38;;
22250;SDS011;59348;52.158;5.588;2023-01-24T14:33:29;22.50;;;15.93;;
22250;SDS011;59348;52.158;5.588;2023-01-24T14:35:58;21.58;;;16.40;;
22250;SDS011;59348;52.158;5.588;2023-01-24T14:39:01;25.25;;;15.95;;
22250;SDS011;59348;52.158;5.588;2023-01-24T14:41:27;21.25;;;16.13;;
22250;SDS011;59348;52.158;5.588;2023-01-24T14:55:49;20.70;;;15.07;;
22250;SDS011;59348;52.158;5.588;2023-01-24T14:58:38;21.00;;;15.32;;
22250;SDS011;59348;52.158;5.588;2023-01-24T15:01:20;22.88;;;15.52;;
22250;SDS011;59348;52.158;5.588;2023-01-24T15:03:57;21.30;;;15.60;;
22250;SDS011;59348;52.158;5.588;2023-01-24T15:06:25;21.98;;;15.18;;
22250;SDS011;59348;52.158;5.588;2023-01-24T15:09:00;19.45;;;14.10;;
22250;SDS011;59348;52.158;5.588;2023-01-24T15:12:09;21.15;;;14.82;;
22250;SDS011;59348;52.158;5.588;2023-01-24T15:14:47;20.20;;;14.52;;
22250;SDS011;59348;52.158;5.588;2023-01-24T15:17:38;20.83;;;14.93;;
22250;SDS011;59348;52.158;5.588;2023-01-24T15:20:09;18.63;;;14.35;;
22250;SDS011;59348;52.158;5.588;2023-01-24T15:22:49;19.35;;;14.40;;
22250;SDS011;59348;52.158;5.588;2023-01-24T15:25:36;21.48;;;14.38;;
22250;SDS011;59348;52.158;5.588;2023-01-24T15:28:09;20.35;;;14.23;;
22250;SDS011;59348;52.158;5.588;2023-01-24T15:31:16;21.83;;;15.57;;
22250;SDS011;59348;52.158;5.588;2023-01-24T15:34:30;21.70;;;15.23;;
22250;SDS011;59348;52.158;5.588;2023-01-24T15:36:55;21.00;;;15.10;;
22250;SDS011;59348;52.158;5.588;2023-01-24T15:39:30;20.42;;;15.20;;
22250;SDS011;59348;52.158;5.588;2023-01-24T15:42:11;22.48;;;16.05;;
22250;SDS011;59348;52.158;5.588;2023-01-24T15:50:58;22.15;;;16.33;;
22250;SDS011;59348;52.158;5.588;2023-01-24T15:53:37;21.55;;;15.88;;
22250;SDS011;59348;52.158;5.588;2023-01-24T15:56:09;21.85;;;15.95;;
22250;SDS011;59348;52.158;5.588;2023-01-24T15:59:00;21.05;;;15.93;;
22250;SDS011;59348;52.158;5.588;2023-01-24T16:01:36;21.77;;;16.40;;
22250;SDS011;59348;52.158;5.588;2023-01-24T16:04:08;21.67;;;16.73;;